Time;durP1;ratioP1;P1;durP2;ratioP2;P2;SDS_P1;SDS_P2;PMS_P1;PMS_P2;Temp;Humidity;BMP_temperature;BMP_pressure;BME280_temperature;BME280_humidity;BME280_pressure;Samples;Min_cycle;Max_cycle;Signal;HPM_P1;HPM_P2
2021/12/01 00:01:41;;;;;;;16.88;9.40;;;9.10;99.90;;;;;;5063415;28;20048;-85
2021/12/01 00:04:07;;;;;;;15.70;10.40;;;;;;;;;;5063566;28;20178;-85
2021/12/01 00:06:33;;;;;;;19.95;10.85;;;;;;;;;;5063208;28;20048;-85
2021/12/01 00:08:59;;;;;;;18.77;8.93;;;;;;;;;;5064872;28;20048;-85
2021/12/01 00:11:25;;;;;;;22.60;11.40;;;;;;;;;;5096693;28;20458;-85
2021/12/01 00:13:52;;;;;;;15.82;9.45;;;;;;;;;;5062945;28;20420;-86
2021/12/01 00:16:18;;;;;;;16.13;10.90;;;;;;;;;;5096518;28;20044;-85
2021/12/01 00:18:44;;;;;;;23.38;11.20;;;;;;;;;;5078961;28;20048;-85
2021/12/01 00:21:10;;;;;;;27.95;12.40;;;;;;;;;;5062984;28;20059;-85
2021/12/01 00:23:36;;;;;;;31.05;12.70;;;;;;;;;;5062247;28;20168;-85
2021/12/01 00:26:03;;;;;;;20.42;10.55;;;;;;;;;;5062740;28;20059;-85
2021/12/01 00:28:30;;;;;;;28.45;13.00;;;;;;;;;;5063221;28;20446;-85
2021/12/01 00:30:57;;;;;;;26.08;13.18;;;9.30;99.90;;;;;;5062464;28;20090;-85
2021/12/01 00:33:24;;;;;;;28.10;12.30;;;;;;;;;;5078937;28;20048;-85
2021/12/01 00:35:54;;;;;;;26.95;13.98;;;;;;;;;;5063752;28;20059;-85
2021/12/01 00:38:21;;;;;;;32.08;11.88;;;9.20;99.90;;;;;;5062494;28;20044;-85
2021/12/01 00:40:47;;;;;;;23.80;11.75;;;;;;;;;;5063006;28;20058;-85
2021/12/01 00:43:17;;;;;;;25.05;12.35;;;;;;;;;;5078742;28;20056;-85
2021/12/01 00:45:50;;;;;;;20.98;11.60;;;;;;;;;;5062765;28;20105;-85
2021/12/01 00:48:17;;;;;;;19.25;11.48;;;9.50;99.90;;;;;;5063421;28;20143;-85
2021/12/01 00:50:43;;;;;;;22.63;12.98;;;;;;;;;;5062196;28;20048;-84
2021/12/01 00:53:11;;;;;;;20.60;10.40;;;;;;;;;;5079270;28;20472;-84
2021/12/01 00:55:37;;;;;;;22.55;10.63;;;;;;;;;;5079196;28;20052;-85
2021/12/01 00:58:03;;;;;;;20.77;12.05;;;9.50;99.90;;;;;;5062336;28;20095;-85
2021/12/01 01:00:30;;;;;;;22.30;11.52;;;9.70;99.90;;;;;;5078487;28;20063;-86
2021/12/01 01:02:57;;;;;;;17.77;10.55;;;;;;;;;;5060838;28;20051;-85
2021/12/01 01:05:23;;;;;;;18.70;9.63;;;;;;;;;;5078289;28;20060;-85
2021/12/01 01:07:49;;;;;;;21.50;10.25;;;;;;;;;;5094975;28;20052;-85
2021/12/01 01:18:24;;;;;;;12.48;7.43;;;;;;;;;;5094778;28;20048;-86
2021/12/01 01:20:50;;;;;;;14.25;8.50;;;;;;;;;;5061533;28;20048;-86
2021/12/01 01:23:16;;;;;;;15.50;8.52;;;;;;;;;;5095226;28;20090;-87
2021/12/01 01:25:42;;;;;;;25.55;10.07;;;;;;;;;;5046261;28;20083;-86
2021/12/01 01:28:08;;;;;;;17.30;9.02;;;;;;;;;;5062985;28;20063;-86
2021/12/01 01:30:34;;;;;;;18.20;8.77;;;;;;;;;;5061373;28;20063;-86
2021/12/01 01:33:01;;;;;;;20.92;9.20;;;;;;;;;;5095209;28;20093;-86
2021/12/01 01:35:27;;;;;;;24.88;7.47;;;;;;;;;;5061707;28;20208;-85
2021/12/01 01:37:53;;;;;;;16.50;6.15;;;;;;;;;;5094921;28;20056;-86
2021/12/01 01:40:19;;;;;;;11.77;6.80;;;;;;;;;;5061957;28;20089;-89
2021/12/01 01:42:45;;;;;;;14.55;6.30;;;;;;;;;;5095359;28;20079;-88
2021/12/01 01:45:12;;;;;;;12.98;6.70;;;;;;;;;;5062040;28;20055;-87
2021/12/01 01:47:59;;;;;;;15.13;6.82;;;9.90;99.90;;;;;;5061259;28;20070;-85
2021/12/01 01:50:35;;;;;;;15.43;5.97;;;;;;;;;;5062527;28;20070;-86
2021/12/01 01:53:05;;;;;;;15.20;5.40;;;9.70;99.90;;;;;;5094982;28;20048;-86
2021/12/01 01:55:32;;;;;;;15.25;5.82;;;;;;;;;;5062738;28;20059;-88
2021/12/01 01:57:58;;;;;;;17.70;5.85;;;;;;;;;;5095216;28;20072;-92
2021/12/01 02:00:25;;;;;;;10.90;5.63;;;;;;;;;;5061732;28;20055;-88
2021/12/01 02:02:52;;;;;;;8.38;4.97;;;;;;;;;;5063051;28;20044;-89
2021/12/01 02:05:18;;;;;;;7.57;3.97;;;;;;;;;;5062440;28;20101;-88
2021/12/01 02:07:44;;;;;;;9.85;3.83;;;;;;;;;;5063288;28;20044;-88
2021/12/01 02:10:10;;;;;;;9.55;3.67;;;;;;;;;;5095649;28;20497;-87
2021/12/01 02:12:39;;;;;;;6.35;3.47;;;;;;;;;;5095709;28;20547;-85
2021/12/01 02:15:05;;;;;;;5.28;2.75;;;;;;;;;;5061378;28;20051;-85
2021/12/01 02:17:31;;;;;;;8.90;3.13;;;;;;;;;;5094857;28;20052;-85
2021/12/01 02:19:57;;;;;;;10.85;3.78;;;;;;;;;;5094319;28;20048;-86
2021/12/01 02:22:24;;;;;;;12.27;2.90;;;;;;;;;;5094065;28;20048;-86
2021/12/01 02:24:50;;;;;;;7.00;2.35;;;;;;;;;;5093730;28;20048;-86
2021/12/01 02:27:16;;;;;;;5.53;2.08;;;;;;;;;;5094940;28;20048;-86
2021/12/01 02:29:42;;;;;;;2.67;2.10;;;;;;;;;;5061195;28;20052;-85
2021/12/01 02:32:08;;;;;;;4.88;2.47;;;;;;;;;;5060533;28;20090;-85
2021/12/01 02:34:39;;;;;;;2.70;2.15;;;;;;;;;;5061037;28;20081;-85
2021/12/01 02:37:05;;;;;;;1.75;1.27;;;;;;;;;;5060868;28;20040;-85
2021/12/01 02:39:31;;;;;;;4.57;1.50;;;;;;;;;;5060717;28;20461;-86
2021/12/01 02:42:00;;;;;;;2.50;1.00;;;9.60;99.90;;;;;;5060254;28;20627;-85
2021/12/01 02:44:27;;;;;;;1.73;1.58;;;10.00;99.90;;;;;;5060402;28;20048;-86
2021/12/01 02:46:54;;;;;;;3.92;1.80;;;;;;;;;;5059854;28;20060;-86
2021/12/01 02:49:24;;;;;;;4.53;1.73;;;9.80;99.90;;;;;;5060726;28;20105;-86
2021/12/01 02:51:53;;;;;;;2.65;2.35;;;;;;;;;;5059666;28;20131;-86
2021/12/01 02:54:19;;;;;;;12.15;2.85;;;;;;;;;;5093861;28;20131;-86
2021/12/01 02:56:50;;;;;;;4.85;2.53;;;9.70;99.90;;;;;;5092764;28;20412;-86
2021/12/01 02:59:17;;;;;;;8.23;2.70;;;;;;;;;;5076734;28;20052;-86
2021/12/01 03:01:44;;;;;;;4.60;1.77;;;;;;;;;;5059408;28;20091;-86
2021/12/01 03:04:10;;;;;;;10.65;2.60;;;;;;;;;;5093672;28;20052;-85
2021/12/01 03:06:36;;;;;;;9.27;3.17;;;;;;;;;;5093181;28;20098;-85
2021/12/01 03:09:05;;;;;;;4.30;2.30;;;9.80;99.90;;;;;;5092399;28;20504;-86
2021/12/01 03:11:32;;;;;;;10.55;1.90;;;;;;;;;;5059600;28;20055;-85
2021/12/01 03:13:58;;;;;;;7.53;2.25;;;;;;;;;;5059779;28;20052;-85
2021/12/01 03:16:24;;;;;;;7.93;2.05;;;;;;;;;;5093171;28;20101;-86
2021/12/01 03:18:51;;;;;;;3.08;1.70;;;;;;;;;;5059240;28;20047;-85
2021/12/01 03:21:17;;;;;;;4.57;1.60;;;;;;;;;;5092318;28;20060;-85
2021/12/01 03:23:44;;;;;;;7.55;1.90;;;;;;;;;;5092873;28;20515;-85
2021/12/01 03:26:11;;;;;;;6.05;1.77;;;;;;;;;;5059179;28;20044;-86
2021/12/01 03:28:38;;;;;;;4.95;2.30;;;;;;;;;;5059260;28;20389;-86
2021/12/01 03:31:04;;;;;;;5.43;1.77;;;;;;;;;;5092727;28;20531;-86
2021/12/01 03:33:30;;;;;;;3.20;1.30;;;10.00;99.90;;;;;;5092237;28;20048;-86
2021/12/01 03:35:56;;;;;;;12.48;3.28;;;;;;;;;;5075552;28;20094;-85
2021/12/01 03:38:26;;;;;;;9.88;2.83;;;9.70;99.90;;;;;;5075821;28;20060;-86
2021/12/01 03:40:52;;;;;;;13.20;2.35;;;;;;;;;;5058845;28;20571;-86
2021/12/01 03:43:18;;;;;;;5.35;2.45;;;;;;;;;;5093579;28;20059;-86
2021/12/01 03:45:45;;;;;;;9.10;3.33;;;;;;;;;;5093724;28;20051;-86
2021/12/01 03:48:11;;;;;;;14.65;3.35;;;;;;;;;;5092667;28;20048;-86
2021/12/01 03:50:38;;;;;;;13.43;3.05;;;;;;;;;;5092513;28;20139;-87
2021/12/01 03:53:04;;;;;;;5.60;2.75;;;;;;;;;;5092919;28;20577;-85
2021/12/01 03:55:30;;;;;;;10.02;2.55;;;;;;;;;;5059200;28;20109;-86
2021/12/01 03:57:57;;;;;;;17.88;3.67;;;;;;;;;;5059565;28;20048;-86
2021/12/01 04:00:23;;;;;;;9.32;2.47;;;;;;;;;;5060232;28;20466;-86
2021/12/01 04:02:49;;;;;;;15.13;2.90;;;;;;;;;;5058949;28;20401;-85
2021/12/01 04:05:15;;;;;;;12.57;3.08;;;9.90;99.90;;;;;;5058982;28;20048;-86
2021/12/01 04:07:41;;;;;;;11.90;3.35;;;;;;;;;;5060161;28;20048;-86
2021/12/01 04:10:12;;;;;;;19.50;3.50;;;9.90;99.90;;;;;;5058690;28;20048;-87
2021/12/01 04:12:41;;;;;;;15.43;3.22;;;;;;;;;;5058854;28;20044;-87
2021/12/01 04:15:09;;;;;;;17.05;3.67;;;9.70;99.90;;;;;;5093120;28;20084;-86
2021/12/01 04:17:35;;;;;;;15.23;2.47;;;;;;;;;;5058536;28;20130;-86
2021/12/01 04:20:01;;;;;;;11.07;2.45;;;;;;;;;;5058177;28;20135;-86
2021/12/01 04:22:27;;;;;;;5.38;1.45;;;;;;;;;;5058226;28;20055;-86
2021/12/01 04:24:53;;;;;;;7.82;2.90;;;;;;;;;;5058961;28;20557;-86
2021/12/01 04:27:19;;;;;;;13.82;3.25;;;;;;;;;;5092140;28;20048;-87
2021/12/01 04:29:45;;;;;;;3.97;2.17;;;;;;;;;;5058806;28;20052;-87
2021/12/01 04:32:11;;;;;;;8.63;2.03;;;;;;;;;;5058575;28;20560;-87
2021/12/01 04:34:38;;;;;;;9.63;2.50;;;;;;;;;;5092050;28;20408;-87
2021/12/01 04:37:05;;;;;;;6.28;1.98;;;9.60;99.90;;;;;;5092662;28;20044;-87
2021/12/01 04:39:31;;;;;;;5.28;2.20;;;;;;;;;;5079796;28;20048;-87
2021/12/01 04:42:04;;;;;;;9.25;1.88;;;;;;;;;;5063255;28;20052;-87
2021/12/01 04:44:30;;;;;;;9.18;2.58;;;;;;;;;;5063428;28;20405;-87
2021/12/01 04:46:57;;;;;;;3.47;1.77;;;;;;;;;;5063356;28;20107;-88
2021/12/01 04:49:24;;;;;;;3.95;2.42;;;;;;;;;;5099252;28;20109;-87
2021/12/01 04:51:56;;;;;;;2.17;1.52;;;9.80;99.90;;;;;;5066218;28;20048;-87
2021/12/01 04:54:23;;;;;;;6.55;1.65;;;9.60;99.90;;;;;;5065978;28;20139;-88
2021/12/01 04:56:50;;;;;;;7.22;1.70;;;;;;;;;;5067660;28;20052;-87
2021/12/01 04:59:17;;;;;;;4.25;1.65;;;9.80;99.90;;;;;;5067789;28;20048;-88
2021/12/01 05:01:43;;;;;;;3.28;1.77;;;;;;;;;;5062441;28;20048;-87
2021/12/01 05:04:10;;;;;;;3.88;1.60;;;;;;;;;;5062233;28;20527;-88
2021/12/01 05:06:37;;;;;;;2.22;1.63;;;;;;;;;;5062463;28;20101;-87
2021/12/01 05:09:04;;;;;;;1.88;1.35;;;;;;;;;;5062392;28;20052;-88
2021/12/01 05:11:30;;;;;;;1.75;1.30;;;;;;;;;;5062266;28;20081;-88
2021/12/01 05:13:56;;;;;;;5.20;1.08;;;;;;;;;;5062439;28;20044;-87
2021/12/01 05:16:22;;;;;;;3.22;1.20;;;;;;;;;;5062235;28;20055;-86
2021/12/01 05:18:48;;;;;;;2.97;1.10;;;;;;;;;;5061513;28;20074;-88
2021/12/01 05:21:14;;;;;;;1.73;1.25;;;;;;;;;;5061509;28;20118;-88
2021/12/01 05:23:40;;;;;;;1.85;1.20;;;;;;;;;;5062448;28;20381;-88
2021/12/01 05:26:09;;;;;;;2.35;1.40;;;;;;;;;;5061537;28;20052;-89
2021/12/01 05:28:35;;;;;;;0.95;0.95;;;;;;;;;;5063139;28;20461;-89
2021/12/01 05:31:01;;;;;;;1.15;1.05;;;;;;;;;;5063383;28;20107;-89
2021/12/01 05:33:27;;;;;;;0.60;0.60;;;;;;;;;;5062281;28;20079;-88
2021/12/01 05:35:54;;;;;;;1.08;0.98;;;;;;;;;;5061308;28;20113;-89
2021/12/01 05:38:20;;;;;;;0.73;0.73;;;;;;;;;;5060999;28;20083;-88
2021/12/01 05:40:49;;;;;;;0.85;0.65;;;;;;;;;;5062375;28;20050;-89
2021/12/01 05:43:16;;;;;;;1.60;1.30;;;;;;;;;;5061325;28;20052;-89
2021/12/01 05:45:42;;;;;;;0.98;0.88;;;;;;;;;;5061980;28;20052;-89
2021/12/01 05:48:08;;;;;;;3.08;0.80;;;;;;;;;;5062413;28;20102;-90
2021/12/01 05:50:35;;;;;;;1.30;1.10;;;9.70;99.90;;;;;;5094882;28;20055;-89
2021/12/01 05:53:01;;;;;;;0.75;0.75;;;;;;;;;;5061493;28;20056;-88
2021/12/01 05:55:40;;;;;;;1.63;1.35;;;;;;;;;;5061744;28;20048;-91
2021/12/01 05:58:06;;;;;;;2.85;1.35;;;;;;;;;;5061695;28;20050;-92
2021/12/01 06:00:32;;;;;;;1.10;1.02;;;;;;;;;;5062176;28;20048;-90
2021/12/01 06:02:58;;;;;;;1.45;1.00;;;;;;;;;;5061263;28;20044;-90
2021/12/01 06:05:24;;;;;;;1.05;0.95;;;;;;;;;;5061512;28;20134;-91
2021/12/01 06:07:51;;;;;;;2.00;1.00;;;;;;;;;;5061060;28;20097;-89
2021/12/01 06:10:17;;;;;;;0.70;0.70;;;;;;;;;;5060672;28;20048;-91
2021/12/01 06:12:45;;;;;;;1.10;1.00;;;;;;;;;;5061014;28;20101;-91
2021/12/01 06:15:13;;;;;;;1.15;1.05;;;;;;;;;;5094150;28;20055;-90
2021/12/01 06:17:39;;;;;;;2.20;1.45;;;;;;;;;;5062247;28;20044;-91
2021/12/01 06:20:05;;;;;;;1.70;1.60;;;;;;;;;;5061706;28;20396;-91
2021/12/01 06:23:00;;;;;;;;;;;;;;;;;;;;;
2021/12/01 06:25:56;;;;;;;1.58;1.48;;;;;;;;;;5095884;28;20145;-91
2021/12/01 06:28:24;;;;;;;2.80;1.40;;;;;;;;;;5079118;28;20051;-92
2021/12/01 06:30:52;;;;;;;1.70;1.60;;;;;;;;;;5061192;28;20082;-91
2021/12/01 06:33:21;;;;;;;1.50;1.40;;;;;;;;;;5061106;28;20048;-92
2021/12/01 06:35:49;;;;;;;1.27;1.17;;;;;;;;;;5061001;28;20067;-92
2021/12/01 06:38:16;;;;;;;1.33;1.17;;;;;;;;;;5060610;28;20044;-90
2021/12/01 06:40:42;;;;;;;1.27;1.17;;;;;;;;;;5060959;28;20147;-89
2021/12/01 06:43:12;;;;;;;1.65;1.55;;;;;;;;;;5060143;28;20505;-91
2021/12/01 06:45:41;;;;;;;4.70;1.30;;;;;;;;;;5094236;28;20131;-92
2021/12/01 06:48:15;;;;;;;1.33;1.25;;;;;;;;;;5059990;28;20052;-91
2021/12/01 06:50:44;;;;;;;1.45;1.35;;;;;;;;;;5059902;28;20095;-90
2021/12/01 06:53:13;;;;;;;1.63;1.52;;;;;;;;;;5060270;28;20101;-91
2021/12/01 06:55:39;;;;;;;1.70;1.60;;;;;;;;;;5059848;28;20501;-90
2021/12/01 06:58:05;;;;;;;1.60;1.40;;;;;;;;;;5060001;28;20512;-91
2021/12/01 07:00:31;;;;;;;1.00;1.00;;;;;;;;;;5059706;28;20056;-91
2021/12/01 07:02:57;;;;;;;2.95;1.40;;;;;;;;;;5060715;28;20051;-90
2021/12/01 07:05:23;;;;;;;1.88;1.73;;;;;;;;;;5060113;28;20446;-92
2021/12/01 07:07:50;;;;;;;0.93;0.93;;;;;;;;;;5060315;28;20075;-90
2021/12/01 07:10:16;;;;;;;2.47;1.80;;;;;;;;;;5059589;28;20055;-90
2021/12/01 07:12:43;;;;;;;1.55;1.45;;;;;;;;;;5060096;28;20515;-92
2021/12/01 07:15:09;;;;;;;2.28;1.90;;;;;;;;;;5061757;28;20109;-91
2021/12/01 07:17:36;;;;;;;2.85;2.33;;;;;;;;;;5060167;28;20092;-91
2021/12/01 07:20:18;;;;;;;3.17;2.17;;;;;;;;;;5060609;28;20040;-92
2021/12/01 07:22:44;;;;;;;2.78;2.17;;;;;;;;;;5060801;28;20094;-95
2021/12/01 07:25:13;;;;;;;4.32;2.33;;;;;;;;;;5095593;28;20044;-92
2021/12/01 07:27:40;;;;;;;2.50;2.30;;;;;;;;;;5093711;28;20056;-92
2021/12/01 07:30:06;;;;;;;3.33;1.92;;;;;;;;;;5060931;28;20158;-92
2021/12/01 07:32:32;;;;;;;2.35;2.15;;;;;;;;;;5060865;28;20048;-92
2021/12/01 07:34:58;;;;;;;4.70;3.33;;;;;;;;;;5060530;28;20137;-92
2021/12/01 07:37:25;;;;;;;4.65;3.08;;;;;;;;;;5060521;28;20044;-93
2021/12/01 07:39:51;;;;;;;7.43;3.42;;;;;;;;;;5061886;28;20139;-95
2021/12/01 07:42:17;;;;;;;6.25;3.15;;;;;;;;;;5060555;28;20044;-93
2021/12/01 07:44:44;;;;;;;6.40;3.40;;;;;;;;;;5061600;28;20139;-90
2021/12/01 07:47:11;;;;;;;7.53;3.80;;;;;;;;;;5060606;28;20489;-94
2021/12/01 07:49:41;;;;;;;6.28;2.70;;;;;;;;;;5060887;28;20436;-92
2021/12/01 07:52:08;;;;;;;4.05;2.70;;;;;;;;;;5060455;28;20059;-93
2021/12/01 07:54:34;;;;;;;9.27;2.97;;;;;;;;;;5060427;28;20095;-93
2021/12/01 07:57:01;;;;;;;3.50;3.20;;;;;;;;;;5060831;28;20090;-93
2021/12/01 07:59:28;;;;;;;7.53;2.78;;;;;;;;;;5059806;28;20055;-93
2021/12/01 08:01:54;;;;;;;10.75;2.95;;;;;;;;;;5060834;28;20048;-93
2021/12/01 08:04:20;;;;;;;4.18;2.97;;;;;;;;;;5060828;28;20199;-92
2021/12/01 08:06:46;;;;;;;4.15;2.55;;;;;;;;;;5061197;28;20165;-93
2021/12/01 08:09:12;;;;;;;3.97;2.60;;;;;;;;;;5061804;28;20075;-93
2021/12/01 08:11:39;;;;;;;7.10;3.30;;;;;;;;;;5061424;28;20055;-92
2021/12/01 08:14:08;;;;;;;4.22;1.80;;;;;;;;;;5063524;28;20459;-93
2021/12/01 08:16:36;;;;;;;5.95;2.60;;;;;;;;;;5063475;28;20561;-92
2021/12/01 08:19:02;;;;;;;9.13;3.20;;;;;;;;;;5064666;28;20040;-92
2021/12/01 08:21:28;;;;;;;10.40;2.15;;;;;;;;;;5063904;28;20048;-93
2021/12/01 08:23:54;;;;;;;3.20;2.10;;;;;;;;;;5064338;28;20043;-91
2021/12/01 08:26:23;;;;;;;2.60;1.75;;;;;;;;;;5064550;28;20048;-94
2021/12/01 08:28:49;;;;;;;4.65;2.08;;;;;;;;;;5063593;28;20055;-93
2021/12/01 08:31:16;;;;;;;3.65;1.77;;;;;;;;;;5063460;28;20052;-93
2021/12/01 08:33:46;;;;;;;4.75;1.35;;;;;;;;;;5063710;28;20051;-92
2021/12/01 08:36:12;;;;;;;6.57;1.98;;;;;;;;;;5098305;28;20060;-93
2021/12/01 08:38:39;;;;;;;2.65;1.60;;;;;;;;;;5064002;28;20489;-93
2021/12/01 08:41:06;;;;;;;8.75;2.50;;;;;;;;;;5064033;28;20044;-93
2021/12/01 08:43:33;;;;;;;12.88;2.67;;;;;;;;;;5064015;28;20051;-93
2021/12/01 08:46:00;;;;;;;9.27;2.17;;;;;;;;;;5064117;28;20044;-92
2021/12/01 08:48:26;;;;;;;5.68;1.70;;;;;;;;;;5064361;28;20366;-93
2021/12/01 08:50:53;;;;;;;6.70;1.75;;;;;;;;;;5063126;28;20090;-93
2021/12/01 08:53:19;;;;;;;5.97;2.33;;;;;;;;;;5096511;28;20058;-92
2021/12/01 08:55:45;;;;;;;4.53;2.00;;;;;;;;;;5064113;28;20077;-92
2021/12/01 08:58:13;;;;;;;8.75;2.13;;;;;;;;;;5098914;28;20056;-90
2021/12/01 09:00:45;;;;;;;7.43;3.05;;;;;;;;;;5063904;28;20059;-91
2021/12/01 09:03:12;;;;;;;5.65;1.80;;;;;;;;;;5098090;28;20400;-93
2021/12/01 09:05:39;;;;;;;11.85;1.75;;;;;;;;;;5064872;28;20488;-91
2021/12/01 09:08:05;;;;;;;7.78;2.05;;;;;;;;;;5070148;28;20043;-91
2021/12/01 09:10:31;;;;;;;5.05;1.60;;;;;;;;;;5071754;28;20139;-93
2021/12/01 09:12:58;;;;;;;3.45;1.70;;;;;;;;;;5069009;28;20050;-94
2021/12/01 09:15:24;;;;;;;4.93;2.45;;;;;;;;;;5066806;28;20059;-94
2021/12/01 09:17:50;;;;;;;4.82;1.05;;;;;;;;;;5068687;28;20040;-94
2021/12/01 09:20:16;;;;;;;8.32;1.33;;;;;;;;;;5104046;28;20055;-92
2021/12/01 09:22:42;;;;;;;9.55;1.77;;;;;;;;;;5066308;28;20044;-93
2021/12/01 09:25:09;;;;;;;6.68;1.83;;;;;;;;;;5064493;28;20143;-92
2021/12/01 09:27:35;;;;;;;7.45;1.98;;;;;;;;;;5063855;28;20048;-94
2021/12/01 09:30:01;;;;;;;6.85;1.95;;;;;;;;;;5062265;28;20055;-94
2021/12/01 09:32:27;;;;;;;4.70;1.60;;;;;;;;;;5062531;28;20083;-94
2021/12/01 09:34:54;;;;;;;5.90;2.30;;;;;;;;;;5062355;28;20056;-93
2021/12/01 09:37:20;;;;;;;10.27;2.25;;;;;;;;;;5061953;28;20044;-93
2021/12/01 09:39:47;;;;;;;4.15;1.23;;;;;;;;;;5063406;28;20465;-93
2021/12/01 09:42:13;;;;;;;2.67;1.10;;;;;;;;;;5062391;28;20506;-92
2021/12/01 09:44:39;;;;;;;3.95;1.40;;;;;;;;;;5061890;28;20138;-93
2021/12/01 09:47:06;;;;;;;5.63;1.48;;;;;;;;;;5062638;28;20052;-92
2021/12/01 09:49:32;;;;;;;7.97;1.85;;;;;;;;;;5061507;28;20048;-93
2021/12/01 09:51:58;;;;;;;7.28;1.55;;;;;;;;;;5061677;28;20134;-93
2021/12/01 09:54:24;;;;;;;6.20;1.90;;;;;;;;;;5061485;28;20044;-92
2021/12/01 09:56:50;;;;;;;5.45;1.77;;;;;;;;;;5061676;28;20524;-94
2021/12/01 09:59:16;;;;;;;7.80;1.80;;;;;;;;;;5061567;28;20131;-94
2021/12/01 10:01:43;;;;;;;12.63;2.30;;;;;;;;;;5062163;28;20571;-95
2021/12/01 10:04:09;;;;;;;7.22;2.08;;;;;;;;;;5062281;28;20040;-93
2021/12/01 10:06:35;;;;;;;7.20;2.17;;;;;;;;;;5062451;28;20055;-95
2021/12/01 10:09:04;;;;;;;5.32;2.03;;;;;;;;;;5062620;28;20488;-95
2021/12/01 10:11:35;;;;;;;7.95;2.30;;;;;;;;;;5062934;28;20488;-94
2021/12/01 10:14:03;;;;;;;13.32;2.70;;;;;;;;;;5063705;28;20381;-95
2021/12/01 10:16:31;;;;;;;4.38;1.85;;;;;;;;;;5063204;28;20043;-94
2021/12/01 10:19:01;;;;;;;6.28;2.45;;;;;;;;;;5061757;28;20408;-93
2021/12/01 10:21:33;;;;;;;9.10;3.15;;;;;;;;;;5061278;28;20055;-96
2021/12/01 10:24:06;;;;;;;7.25;2.25;;;;;;;;;;5095261;28;20585;-95
2021/12/01 10:26:33;;;;;;;9.75;2.42;;;;;;;;;;5096975;28;20463;-95
2021/12/01 10:29:01;;;;;;;15.85;2.97;;;;;;;;;;5063940;28;20111;-96
2021/12/01 10:31:51;;;;;;;3.75;1.88;;;;;;;;;;5065796;28;20044;-96
2021/12/01 10:34:17;;;;;;;10.90;1.90;;;;;;;;;;4980239;28;20042;-96
2021/12/01 10:36:44;;;;;;;19.02;3.28;;;;;;;;;;4980080;28;20054;-96
2021/12/01 10:39:10;;;;;;;6.82;2.33;;;;;;;;;;4979535;28;20058;-95
2021/12/01 10:41:37;;;;;;;14.65;2.78;;;;;;;;;;4978311;28;20085;-94
2021/12/01 10:44:14;;;;;;;7.13;1.70;;;;;;;;;;4979094;28;20046;-94
2021/12/01 10:46:44;;;;;;;6.70;3.10;;;;;;;;;;4979025;28;20092;-96
2021/12/01 10:49:10;;;;;;;12.63;3.67;;;;;;;;;;4979083;28;20050;-96
2021/12/01 10:51:39;;;;;;;8.35;2.80;;;;;;;;;;4978698;28;20113;-88
2021/12/01 10:54:13;;;;;;;12.93;3.13;;;;;;;;;;4994107;28;20051;-89
2021/12/01 10:56:39;;;;;;;11.48;3.42;;;;;;;;;;4978026;28;20410;-88
2021/12/01 10:59:15;;;;;;;12.52;2.35;;;;;;;;;;4994520;28;20054;-89
2021/12/01 11:01:41;;;;;;;7.80;1.80;;;;;;;;;;4994604;28;20088;-90
2021/12/01 11:04:07;;;;;;;9.35;2.20;;;;;;;;;;4994479;28;20468;-91
2021/12/01 11:06:41;;;;;;;9.13;2.42;;;;;;;;;;4979637;28;20062;-90
2021/12/01 11:09:07;;;;;;;6.50;1.48;;;;;;;;;;4977765;28;20105;-90
2021/12/01 11:11:50;;;;;;;18.10;2.03;;;;;;;;;;5018936;28;20064;-92
2021/12/01 11:14:17;;;;;;;12.68;2.90;;;;;;;;;;5039937;28;20060;-90
2021/12/01 11:16:44;;;;;;;10.70;2.72;;;;;;;;;;5040024;28;20064;-90
2021/12/01 11:19:10;;;;;;;14.73;3.60;;;;;;;;;;5040791;28;20041;-90
2021/12/01 11:21:39;;;;;;;11.43;2.63;;;;;;;;;;5040337;28;20055;-90
2021/12/01 11:24:06;;;;;;;8.90;2.42;;;;;;;;;;5040095;28;20508;-90
2021/12/01 11:26:32;;;;;;;17.25;3.38;;;;;;;;;;5039772;28;20060;-90
2021/12/01 11:29:03;;;;;;;11.52;4.22;;;;;;;;;;5056982;28;20051;-88
2021/12/01 11:31:32;;;;;;;13.00;4.30;;;;;;;;;;5039384;28;20067;-90
2021/12/01 11:33:59;;;;;;;12.82;3.92;;;;;;;;;;5072833;28;20063;-90
2021/12/01 11:36:27;;;;;;;12.25;3.13;;;;;;;;;;5040938;28;20071;-89
2021/12/01 11:38:55;;;;;;;9.15;2.58;;;;;;;;;;5055448;28;20088;-87
2021/12/01 11:41:21;;;;;;;15.02;3.00;;;;;;;;;;5072269;28;20059;-86
2021/12/01 11:43:48;;;;;;;13.93;3.58;;;;;;;;;;5055849;28;20045;-88
2021/12/01 11:46:14;;;;;;;9.80;2.78;;;;;;;;;;5056053;28;20090;-88
2021/12/01 11:48:44;;;;;;;8.63;2.92;;;;;;;;;;5059684;28;20563;-89
2021/12/01 11:51:14;;;;;;;9.25;3.83;;;;;;;;;;5059309;28;20044;-89
2021/12/01 11:53:46;;;;;;;10.73;2.47;;;;;;;;;;5060074;28;20053;-88
2021/12/01 11:56:14;;;;;;;14.70;2.83;;;;;;;;;;5075946;28;20049;-88
2021/12/01 11:58:43;;;;;;;10.20;3.10;;;;;;;;;;5059530;28;20056;-88
2021/12/01 12:01:21;;;;;;;9.75;2.60;;;;;;;;;;5060599;28;20087;-88
2021/12/01 12:03:48;;;;;;;11.65;3.08;;;;;;;;;;5059314;28;20052;-87
2021/12/01 12:06:34;;;;;;;19.65;3.33;;;;;;;;;;5076122;28;20049;-89
2021/12/01 12:09:07;;;;;;;10.48;3.33;;;;;;;;;;5059404;28;20052;-89
2021/12/01 12:11:37;;;;;;;12.90;4.15;;;;;;;;;;5059638;28;20066;-89
2021/12/01 12:14:06;;;;;;;14.15;3.55;;;;;;;;;;5059556;28;20048;-88
2021/12/01 12:16:32;;;;;;;21.95;3.70;;;;;;;;;;5077219;28;20052;-89
2021/12/01 12:18:59;;;;;;;12.77;2.83;;;;;;;;;;5076530;28;20106;-88
2021/12/01 12:21:40;;;;;;;8.38;2.33;;;;;;;;;;5059655;28;20056;-88
2021/12/01 12:24:12;;;;;;;12.63;2.95;;;;;;;;;;5059655;28;20056;-89
2021/12/01 12:26:42;;;;;;;20.92;2.83;;;;;;;;;;5060376;28;20048;-88
2021/12/01 12:29:12;;;;;;;16.02;2.97;;;;;;;;;;5059574;28;20048;-88
2021/12/01 12:31:38;;;;;;;7.55;2.38;;;;;;;;;;5060181;28;20052;-87
2021/12/01 12:34:09;;;;;;;6.88;2.38;;;;;;;;;;5059169;28;20055;-87
2021/12/01 12:36:38;;;;;;;7.70;1.50;;;;;;;;;;5059926;28;20051;-87
2021/12/01 12:39:06;;;;;;;3.22;1.75;;;;;;;;;;5060425;28;20496;-88
2021/12/01 12:41:32;;;;;;;7.93;3.72;;;;;;;;;;5061217;28;20416;-87
2021/12/01 12:44:18;;;;;;;7.82;1.95;;;;;;;;;;5060344;28;20193;-88
2021/12/01 12:47:00;;;;;;;6.93;2.15;;;;;;;;;;5060736;28;20075;-89
2021/12/01 12:49:36;;;;;;;9.48;2.50;;;;;;;;;;5061567;28;20051;-87
2021/12/01 12:52:26;;;;;;;5.85;2.03;;;8.30;99.90;;;;;;5061413;28;20058;-88
2021/12/01 12:54:53;;;;;;;7.28;2.97;;;;;;;;;;5060978;28;20048;-88
2021/12/01 12:57:20;;;;;;;10.20;2.45;;;;;;;;;;5061450;28;20412;-89
2021/12/01 12:59:46;;;;;;;8.80;2.50;;;;;;;;;;5061689;28;20052;-89
2021/12/01 13:02:15;;;;;;;5.55;1.83;;;;;;;;;;5063089;28;20102;-88
2021/12/01 13:04:48;;;;;;;10.85;1.90;;;;;;;;;;5064934;28;20140;-89
2021/12/01 13:07:59;;;;;;;11.38;2.28;;;8.20;99.90;;;;;;5063766;28;20532;-89
2021/12/01 13:10:25;;;;;;;7.72;2.25;;;;;;;;;;5074038;28;20113;-88
2021/12/01 13:13:00;;;;;;;8.00;2.08;;;;;;;;;;5079296;28;20052;-88
2021/12/01 13:15:31;;;;;;;16.30;3.13;;;;;;;;;;5060110;28;20048;-88
2021/12/01 13:17:59;;;;;;;9.55;3.17;;;;;;;;;;5076550;28;20056;-88
2021/12/01 13:20:29;;;;;;;4.45;2.13;;;;;;;;;;5075936;28;20084;-88
2021/12/01 13:22:59;;;;;;;4.93;1.52;;;;;;;;;;5075461;28;20060;-88
2021/12/01 13:25:25;;;;;;;8.10;2.42;;;;;;;;;;5058471;28;20048;-89
2021/12/01 13:27:51;;;;;;;14.90;1.95;;;;;;;;;;5058512;28;20048;-88
2021/12/01 13:30:17;;;;;;;8.77;1.75;;;;;;;;;;5074953;28;20060;-89
2021/12/01 13:32:43;;;;;;;11.02;2.72;;;;;;;;;;5076042;28;20052;-89
2021/12/01 13:35:09;;;;;;;4.93;2.35;;;;;;;;;;5058649;28;20401;-90
2021/12/01 13:37:36;;;;;;;5.63;1.58;;;;;;;;;;5057616;28;20048;-89
2021/12/01 13:40:09;;;;;;;4.00;1.27;;;;;;;;;;5058781;28;20052;-89
2021/12/01 13:42:35;;;;;;;3.72;1.38;;;;;;;;;;5058253;28;20044;-89
2021/12/01 13:45:01;;;;;;;8.02;2.03;;;;;;;;;;5075471;28;20448;-89
2021/12/01 13:47:30;;;;;;;4.25;2.25;;;;;;;;;;5058783;28;20045;-90
2021/12/01 13:49:59;;;;;;;5.60;1.58;;;;;;;;;;5058850;28;20536;-89
2021/12/01 13:52:25;;;;;;;8.70;1.77;;;;;;;;;;5059549;28;20048;-90
2021/12/01 13:54:51;;;;;;;3.38;1.75;;;;;;;;;;5059542;28;20059;-90
2021/12/01 13:57:17;;;;;;;5.35;1.70;;;;;;;;;;5059385;28;20489;-90
2021/12/01 13:59:43;;;;;;;4.57;1.42;;;;;;;;;;5058932;28;20626;-91
2021/12/01 14:02:09;;;;;;;8.35;2.33;;;;;;;;;;5058324;28;20060;-90
2021/12/01 14:04:36;;;;;;;8.38;1.30;;;;;;;;;;5058556;28;20091;-89
2021/12/01 14:07:02;;;;;;;10.63;1.67;;;;;;;;;;5058133;28;20048;-90
2021/12/01 14:09:36;;;;;;;8.93;1.58;;;;;;;;;;5075283;28;20142;-91
2021/12/01 14:12:28;;;;;;;8.98;1.77;;;;;;;;;;5057722;28;20513;-92
2021/12/01 14:14:54;;;;;;;4.20;1.95;;;;;;;;;;4978281;28;20192;-91
2021/12/01 14:17:21;;;;;;;8.73;1.85;;;;;;;;;;4978301;28;20543;-93
2021/12/01 14:19:47;;;;;;;3.50;1.30;;;;;;;;;;4978503;28;20057;-92
2021/12/01 14:22:14;;;;;;;4.85;1.63;;;;;;;;;;4977858;28;20713;-89
2021/12/01 14:24:50;;;;;;;10.40;2.60;;;;;;;;;;4978046;28;20108;-91
2021/12/01 14:27:16;;;;;;;5.40;1.42;;;;;;;;;;4978278;28;20430;-90
2021/12/01 14:29:42;;;;;;;8.00;1.63;;;;;;;;;;4977616;28;20050;-89
2021/12/01 14:32:10;;;;;;;4.43;1.45;;;;;;;;;;4977575;28;20581;-90
2021/12/01 14:34:37;;;;;;;11.90;2.42;;;;;;;;;;4976868;28;20050;-90
2021/12/01 14:37:05;;;;;;;6.47;2.63;;;;;;;;;;4977984;28;20419;-91
2021/12/01 14:39:31;;;;;;;5.90;2.42;;;;;;;;;;4978311;28;20089;-90
2021/12/01 14:42:00;;;;;;;4.68;2.05;;;;;;;;;;4993593;28;20471;-94
2021/12/01 14:44:39;;;;;;;9.18;2.22;;;;;;;;;;4977408;28;20042;-93